sensor_id;sensor_type;location;lat;lon;timestamp;temperature;humidity
18823;DHT22;9540;51.550;7.980;2023-02-26T00:01:29;-2.60;99.90
18823;DHT22;9540;51.550;7.980;2023-02-26T00:03:57;-2.70;99.90
18823;DHT22;9540;51.550;7.980;2023-02-26T00:06:25;-2.60;99.90
18823;DHT22;9540;51.550;7.980;2023-02-26T00:08:53;-2.70;99.90
18823;DHT22;9540;51.550;7.980;2023-02-26T00:11:21;-2.60;99.90
18823;DHT22;9540;51.550;7.980;2023-02-26T00:13:49;-2.60;99.90
18823;DHT22;9540;51.550;7.980;2023-02-26T00:16:25;-2.70;99.90
18823;DHT22;9540;51.550;7.980;2023-02-26T00:18:53;-2.60;99.90
18823;DHT22;9540;51.550;7.980;2023-02-26T00:21:22;-2.60;99.90
18823;DHT22;9540;51.550;7.980;2023-02-26T00:23:49;-2.60;99.90
18823;DHT22;9540;51.550;7.980;2023-02-26T00:26:18;-2.60;99.90
18823;DHT22;9540;51.550;7.980;2023-02-26T00:28:46;-2.60;99.90
18823;DHT22;9540;51.550;7.980;2023-02-26T00:31:15;-2.70;99.90
18823;DHT22;9540;51.550;7.980;2023-02-26T00:33:43;-2.70;99.90
18823;DHT22;9540;51.550;7.980;2023-02-26T00:36:18;-2.80;99.90
18823;DHT22;9540;51.550;7.980;2023-02-26T00:38:54;-2.80;99.90
18823;DHT22;9540;51.550;7.980;2023-02-26T00:41:24;-2.90;99.90
18823;DHT22;9540;51.550;7.980;2023-02-26T00:43:52;-2.90;99.90
18823;DHT22;9540;51.550;7.980;2023-02-26T00:46:23;-3.00;99.90
18823;DHT22;9540;51.550;7.980;2023-02-26T00:48:57;-3.00;99.90
18823;DHT22;9540;51.550;7.980;2023-02-26T00:51:30;-3.10;99.90
18823;DHT22;9540;51.550;7.980;2023-02-26T00:54:03;-3.10;99.90
18823;DHT22;9540;51.550;7.980;2023-02-26T00:56:32;-3.20;99.90
18823;DHT22;9540;51.550;7.980;2023-02-26T00:58:59;-3.10;99.90
18823;DHT22;9540;51.550;7.980;2023-02-26T01:01:26;-3.10;99.90
18823;DHT22;9540;51.550;7.980;2023-02-26T01:03:54;-3.10;99.90
18823;DHT22;9540;51.550;7.980;2023-02-26T01:06:24;-3.10;99.90
18823;DHT22;9540;51.550;7.980;2023-02-26T01:08:58;-3.10;99.90
18823;DHT22;9540;51.550;7.980;2023-02-26T01:11:27;-3.10;99.90
18823;DHT22;9540;51.550;7.980;2023-02-26T01:13:56;-3.10;99.90
18823;DHT22;9540;51.550;7.980;2023-02-26T01:16:27;-3.20;99.90
18823;DHT22;9540;51.550;7.980;2023-02-26T01:19:00;-3.20;99.90
18823;DHT22;9540;51.550;7.980;2023-02-26T01:21:31;-3.20;99.90
18823;DHT22;9540;51.550;7.980;2023-02-26T01:24:00;-3.30;99.90
18823;DHT22;9540;51.550;7.980;2023-02-26T01:26:29;-3.30;99.90
18823;DHT22;9540;51.550;7.980;2023-02-26T01:28:57;-3.40;99.90
18823;DHT22;9540;51.550;7.980;2023-02-26T01:31:37;-3.40;99.90
18823;DHT22;9540;51.550;7.980;2023-02-26T01:34:09;-3.50;99.90
18823;DHT22;9540;51.550;7.980;2023-02-26T01:36:42;-3.60;99.90
18823;DHT22;9540;51.550;7.980;2023-02-26T01:39:16;-3.60;99.90
18823;DHT22;9540;51.550;7.980;2023-02-26T01:41:46;-3.60;99.90
18823;DHT22;9540;51.550;7.980;2023-02-26T01:44:20;-3.60;99.90
18823;DHT22;9540;51.550;7.980;2023-02-26T01:47:05;-3.70;99.90
18823;DHT22;9540;51.550;7.980;2023-02-26T01:49:36;-3.70;99.90
18823;DHT22;9540;51.550;7.980;2023-02-26T01:52:04;-3.80;99.90
18823;DHT22;9540;51.550;7.980;2023-02-26T01:54:33;-3.80;99.90
18823;DHT22;9540;51.550;7.980;2023-02-26T01:57:04;-3.70;99.90
18823;DHT22;9540;51.550;7.980;2023-02-26T01:59:35;-3.70;99.90
18823;DHT22;9540;51.550;7.980;2023-02-26T02:02:05;-3.60;99.90
18823;DHT22;9540;51.550;7.980;2023-02-26T02:04:33;-3.60;99.90
18823;DHT22;9540;51.550;7.980;2023-02-26T02:07:00;-3.50;99.90
18823;DHT22;9540;51.550;7.980;2023-02-26T02:09:27;-3.40;99.90
18823;DHT22;9540;51.550;7.980;2023-02-26T02:12:12;-3.20;99.90
18823;DHT22;9540;51.550;7.980;2023-02-26T02:14:52;-3.10;99.90
18823;DHT22;9540;51.550;7.980;2023-02-26T02:17:27;-3.00;99.90
18823;DHT22;9540;51.550;7.980;2023-02-26T02:20:25;-2.90;99.90
18823;DHT22;9540;51.550;7.980;2023-02-26T02:23:05;-2.80;99.90
18823;DHT22;9540;51.550;7.980;2023-02-26T02:26:00;-2.80;99.90
18823;DHT22;9540;51.550;7.980;2023-02-26T02:28:36;-2.70;99.90
18823;DHT22;9540;51.550;7.980;2023-02-26T02:31:10;-2.60;99.90
18823;DHT22;9540;51.550;7.980;2023-02-26T02:33:44;-2.60;99.90
18823;DHT22;9540;51.550;7.980;2023-02-26T02:36:16;-2.60;99.90
18823;DHT22;9540;51.550;7.980;2023-02-26T02:38:48;-2.50;99.90
18823;DHT22;9540;51.550;7.980;2023-02-26T02:41:21;-2.50;99.90
18823;DHT22;9540;51.550;7.980;2023-02-26T02:43:51;-2.60;99.90
18823;DHT22;9540;51.550;7.980;2023-02-26T02:46:23;-2.60;99.90
18823;DHT22;9540;51.550;7.980;2023-02-26T02:48:54;-2.60;99.90
18823;DHT22;9540;51.550;7.980;2023-02-26T02:51:24;-2.60;99.90
18823;DHT22;9540;51.550;7.980;2023-02-26T02:53:54;-2.60;99.90
18823;DHT22;9540;51.550;7.980;2023-02-26T02:56:24;-2.50;99.90
18823;DHT22;9540;51.550;7.980;2023-02-26T02:58:57;-2.60;99.90
18823;DHT22;9540;51.550;7.980;2023-02-26T03:01:27;-2.60;99.90
18823;DHT22;9540;51.550;7.980;2023-02-26T03:04:00;-2.70;99.90
18823;DHT22;9540;51.550;7.980;2023-02-26T03:06:28;-2.80;99.90
18823;DHT22;9540;51.550;7.980;2023-02-26T03:08:55;-2.90;99.90
18823;DHT22;9540;51.550;7.980;2023-02-26T03:11:22;-3.00;99.90
18823;DHT22;9540;51.550;7.980;2023-02-26T03:13:49;-3.10;99.90
18823;DHT22;9540;51.550;7.980;2023-02-26T03:16:33;-3.20;99.90
18823;DHT22;9540;51.550;7.980;2023-02-26T03:19:08;-3.30;99.90
18823;DHT22;9540;51.550;7.980;2023-02-26T03:21:41;-3.30;99.90
18823;DHT22;9540;51.550;7.980;2023-02-26T03:24:15;-3.20;99.90
18823;DHT22;9540;51.550;7.980;2023-02-26T03:26:53;-3.10;99.90
18823;DHT22;9540;51.550;7.980;2023-02-26T03:29:27;-3.10;99.90
18823;DHT22;9540;51.550;7.980;2023-02-26T03:32:01;-3.00;99.90
18823;DHT22;9540;51.550;7.980;2023-02-26T03:34:36;-3.00;99.90
18823;DHT22;9540;51.550;7.980;2023-02-26T03:37:07;-3.10;99.90
18823;DHT22;9540;51.550;7.980;2023-02-26T03:39:41;-3.10;99.90
18823;DHT22;9540;51.550;7.980;2023-02-26T03:42:12;-3.10;99.90
18823;DHT22;9540;51.550;7.980;2023-02-26T03:44:46;-3.10;99.90
18823;DHT22;9540;51.550;7.980;2023-02-26T03:47:15;-3.00;99.90
18823;DHT22;9540;51.550;7.980;2023-02-26T03:49:45;-3.00;99.90
18823;DHT22;9540;51.550;7.980;2023-02-26T03:52:14;-3.00;99.90
18823;DHT22;9540;51.550;7.980;2023-02-26T03:54:44;-3.00;99.90
18823;DHT22;9540;51.550;7.980;2023-02-26T03:57:12;-3.00;99.90
18823;DHT22;9540;51.550;7.980;2023-02-26T03:59:39;-3.10;99.90
18823;DHT22;9540;51.550;7.980;2023-02-26T04:02:10;-3.10;99.90
18823;DHT22;9540;51.550;7.980;2023-02-26T04:04:45;-3.10;99.90
18823;DHT22;9540;51.550;7.980;2023-02-26T04:07:15;-3.20;99.90
18823;DHT22;9540;51.550;7.980;2023-02-26T04:09:43;-3.20;99.90
18823;DHT22;9540;51.550;7.980;2023-02-26T04:12:11;-3.10;99.90
18823;DHT22;9540;51.550;7.980;2023-02-26T04:14:38;-3.20;99.90
18823;DHT22;9540;51.550;7.980;2023-02-26T04:17:05;-3.20;99.90
18823;DHT22;9540;51.550;7.980;2023-02-26T04:19:32;-3.30;99.90
18823;DHT22;9540;51.550;7.980;2023-02-26T04:22:00;-3.40;99.90
18823;DHT22;9540;51.550;7.980;2023-02-26T04:24:27;-3.40;99.90
18823;DHT22;9540;51.550;7.980;2023-02-26T04:26:54;-3.50;99.90
18823;DHT22;9540;51.550;7.980;2023-02-26T04:29:21;-3.50;99.90
18823;DHT22;9540;51.550;7.980;2023-02-26T04:31:49;-3.60;99.90
18823;DHT22;9540;51.550;7.980;2023-02-26T04:34:15;-3.70;99.90
18823;DHT22;9540;51.550;7.980;2023-02-26T04:36:42;-3.70;99.90
18823;DHT22;9540;51.550;7.980;2023-02-26T04:39:11;-3.70;99.90
18823;DHT22;9540;51.550;7.980;2023-02-26T04:41:38;-3.70;99.90
18823;DHT22;9540;51.550;7.980;2023-02-26T04:44:05;-3.80;99.90
18823;DHT22;9540;51.550;7.980;2023-02-26T04:46:32;-3.70;99.90
18823;DHT22;9540;51.550;7.980;2023-02-26T04:48:59;-3.80;99.90
18823;DHT22;9540;51.550;7.980;2023-02-26T04:51:26;-3.80;99.90
18823;DHT22;9540;51.550;7.980;2023-02-26T04:53:53;-3.90;99.90
18823;DHT22;9540;51.550;7.980;2023-02-26T04:56:21;-4.00;99.90
18823;DHT22;9540;51.550;7.980;2023-02-26T04:58:48;-4.00;99.90
18823;DHT22;9540;51.550;7.980;2023-02-26T05:01:15;-4.00;99.90
18823;DHT22;9540;51.550;7.980;2023-02-26T05:03:42;-4.10;99.90
18823;DHT22;9540;51.550;7.980;2023-02-26T05:06:09;-4.10;99.90
18823;DHT22;9540;51.550;7.980;2023-02-26T05:08:36;-4.10;99.90
18823;DHT22;9540;51.550;7.980;2023-02-26T05:11:06;-4.10;99.90
18823;DHT22;9540;51.550;7.980;2023-02-26T05:13:35;-4.20;99.90
18823;DHT22;9540;51.550;7.980;2023-02-26T05:16:02;-4.20;99.90
18823;DHT22;9540;51.550;7.980;2023-02-26T05:18:29;-4.10;99.90
18823;DHT22;9540;51.550;7.980;2023-02-26T05:20:57;-4.10;99.90
18823;DHT22;9540;51.550;7.980;2023-02-26T05:23:25;-4.00;99.90
18823;DHT22;9540;51.550;7.980;2023-02-26T05:25:54;-3.90;99.90
18823;DHT22;9540;51.550;7.980;2023-02-26T05:28:21;-3.90;99.90
18823;DHT22;9540;51.550;7.980;2023-02-26T05:30:49;-3.90;99.90
18823;DHT22;9540;51.550;7.980;2023-02-26T05:33:16;-3.90;99.90
18823;DHT22;9540;51.550;7.980;2023-02-26T05:35:44;-3.90;99.90
18823;DHT22;9540;51.550;7.980;2023-02-26T05:38:13;-4.00;99.90
18823;DHT22;9540;51.550;7.980;2023-02-26T05:40:40;-4.00;99.90
18823;DHT22;9540;51.550;7.980;2023-02-26T05:43:06;-4.10;99.90
18823;DHT22;9540;51.550;7.980;2023-02-26T05:45:34;-4.10;99.90
18823;DHT22;9540;51.550;7.980;2023-02-26T05:48:02;-4.20;99.90
18823;DHT22;9540;51.550;7.980;2023-02-26T05:50:29;-4.20;99.90
18823;DHT22;9540;51.550;7.980;2023-02-26T05:52:56;-4.20;99.90
18823;DHT22;9540;51.550;7.980;2023-02-26T05:55:23;-4.20;99.90
18823;DHT22;9540;51.550;7.980;2023-02-26T05:57:50;-4.10;99.90
18823;DHT22;9540;51.550;7.980;2023-02-26T06:00:18;-4.00;99.90
18823;DHT22;9540;51.550;7.980;2023-02-26T06:02:45;-3.90;99.90
18823;DHT22;9540;51.550;7.980;2023-02-26T06:05:13;-3.90;99.90
18823;DHT22;9540;51.550;7.980;2023-02-26T06:07:40;-3.90;99.90
18823;DHT22;9540;51.550;7.980;2023-02-26T06:10:08;-3.90;99.90
18823;DHT22;9540;51.550;7.980;2023-02-26T06:12:38;-3.80;99.90
18823;DHT22;9540;51.550;7.980;2023-02-26T06:15:06;-3.70;99.90
18823;DHT22;9540;51.550;7.980;2023-02-26T06:17:34;-3.60;99.90
18823;DHT22;9540;51.550;7.980;2023-02-26T06:20:01;-3.50;99.90
18823;DHT22;9540;51.550;7.980;2023-02-26T06:22:30;-3.40;99.90
18823;DHT22;9540;51.550;7.980;2023-02-26T06:24:57;-3.40;99.90
18823;DHT22;9540;51.550;7.980;2023-02-26T06:27:24;-3.30;99.90
18823;DHT22;9540;51.550;7.980;2023-02-26T06:29:51;-3.30;99.90
18823;DHT22;9540;51.550;7.980;2023-02-26T06:32:18;-3.20;99.90
18823;DHT22;9540;51.550;7.980;2023-02-26T06:34:44;-3.20;99.90
18823;DHT22;9540;51.550;7.980;2023-02-26T06:37:11;-3.20;99.90
18823;DHT22;9540;51.550;7.980;2023-02-26T06:39:40;-3.10;99.90
18823;DHT22;9540;51.550;7.980;2023-02-26T06:42:07;-3.20;99.90
18823;DHT22;9540;51.550;7.980;2023-02-26T06:44:34;-3.20;99.90
18823;DHT22;9540;51.550;7.980;2023-02-26T06:47:01;-3.30;99.90
18823;DHT22;9540;51.550;7.980;2023-02-26T06:49:28;-3.40;99.90
18823;DHT22;9540;51.550;7.980;2023-02-26T06:51:54;-3.30;99.90
18823;DHT22;9540;51.550;7.980;2023-02-26T06:54:22;-3.20;99.90
18823;DHT22;9540;51.550;7.980;2023-02-26T06:56:50;-3.00;99.90
18823;DHT22;9540;51.550;7.980;2023-02-26T06:59:17;-2.90;99.90
18823;DHT22;9540;51.550;7.980;2023-02-26T07:01:44;-2.80;99.90
18823;DHT22;9540;51.550;7.980;2023-02-26T07:04:11;-2.70;99.90
18823;DHT22;9540;51.550;7.980;2023-02-26T07:06:38;-2.70;99.90
18823;DHT22;9540;51.550;7.980;2023-02-26T07:09:05;-2.60;99.90
18823;DHT22;9540;51.550;7.980;2023-02-26T07:11:32;-2.50;99.90
18823;DHT22;9540;51.550;7.980;2023-02-26T07:14:00;-2.40;99.90
18823;DHT22;9540;51.550;7.980;2023-02-26T07:16:28;-2.30;99.90
18823;DHT22;9540;51.550;7.980;2023-02-26T07:18:55;-2.30;99.90
18823;DHT22;9540;51.550;7.980;2023-02-26T07:21:22;-2.20;99.90
18823;DHT22;9540;51.550;7.980;2023-02-26T07:23:49;-2.20;99.90
18823;DHT22;9540;51.550;7.980;2023-02-26T07:26:16;-2.10;99.90
18823;DHT22;9540;51.550;7.980;2023-02-26T07:28:43;-2.10;99.90
18823;DHT22;9540;51.550;7.980;2023-02-26T07:31:11;-2.00;99.90
18823;DHT22;9540;51.550;7.980;2023-02-26T07:33:39;-1.80;99.90
18823;DHT22;9540;51.550;7.980;2023-02-26T07:36:06;-1.50;99.90
18823;DHT22;9540;51.550;7.980;2023-02-26T07:38:33;-1.30;99.90
18823;DHT22;9540;51.550;7.980;2023-02-26T07:41:00;-1.00;99.90
18823;DHT22;9540;51.550;7.980;2023-02-26T07:43:27;-0.60;99.90
18823;DHT22;9540;51.550;7.980;2023-02-26T07:45:54;0.10;99.90
18823;DHT22;9540;51.550;7.980;2023-02-26T07:48:22;0.80;99.90
18823;DHT22;9540;51.550;7.980;2023-02-26T07:50:51;1.40;99.90
18823;DHT22;9540;51.550;7.980;2023-02-26T07:53:18;1.70;99.90
18823;DHT22;9540;51.550;7.980;2023-02-26T07:55:44;1.40;99.90
18823;DHT22;9540;51.550;7.980;2023-02-26T07:58:11;1.50;99.90
18823;DHT22;9540;51.550;7.980;2023-02-26T08:00:38;1.90;99.90
18823;DHT22;9540;51.550;7.980;2023-02-26T08:03:05;2.40;99.90
18823;DHT22;9540;51.550;7.980;2023-02-26T08:05:34;3.30;99.90
18823;DHT22;9540;51.550;7.980;2023-02-26T08:08:01;4.20;99.90
18823;DHT22;9540;51.550;7.980;2023-02-26T08:10:28;4.90;99.90
18823;DHT22;9540;51.550;7.980;2023-02-26T08:12:55;5.60;99.90
18823;DHT22;9540;51.550;7.980;2023-02-26T08:15:22;6.00;99.90
18823;DHT22;9540;51.550;7.980;2023-02-26T08:17:51;6.20;99.90
18823;DHT22;9540;51.550;7.980;2023-02-26T08:20:18;6.10;99.90
18823;DHT22;9540;51.550;7.980;2023-02-26T08:22:46;5.70;99.90
18823;DHT22;9540;51.550;7.980;2023-02-26T08:25:14;5.90;99.90
18823;DHT22;9540;51.550;7.980;2023-02-26T08:27:41;6.10;99.90
18823;DHT22;9540;51.550;7.980;2023-02-26T08:30:09;6.00;99.90
18823;DHT22;9540;51.550;7.980;2023-02-26T08:32:37;6.80;99.90
18823;DHT22;9540;51.550;7.980;2023-02-26T08:35:07;8.10;99.90
18823;DHT22;9540;51.550;7.980;2023-02-26T08:37:34;8.80;97.60
18823;DHT22;9540;51.550;7.980;2023-02-26T08:40:04;9.10;90.90
18823;DHT22;9540;51.550;7.980;2023-02-26T08:42:31;8.50;98.60
18823;DHT22;9540;51.550;7.980;2023-02-26T08:44:58;8.20;99.80
18823;DHT22;9540;51.550;7.980;2023-02-26T08:47:25;7.80;99.90
18823;DHT22;9540;51.550;7.980;2023-02-26T08:49:52;7.00;99.90
18823;DHT22;9540;51.550;7.980;2023-02-26T08:52:19;6.40;99.90
18823;DHT22;9540;51.550;7.980;2023-02-26T08:54:47;6.60;99.90
18823;DHT22;9540;51.550;7.980;2023-02-26T08:57:15;6.40;99.90
18823;DHT22;9540;51.550;7.980;2023-02-26T08:59:42;5.70;99.90
18823;DHT22;9540;51.550;7.980;2023-02-26T09:02:10;5.20;99.90
18823;DHT22;9540;51.550;7.980;2023-02-26T09:04:37;5.40;99.90
18823;DHT22;9540;51.550;7.980;2023-02-26T09:07:04;5.70;99.90
18823;DHT22;9540;51.550;7.980;2023-02-26T09:09:31;5.90;99.90
18823;DHT22;9540;51.550;7.980;2023-02-26T09:11:58;5.90;99.90
18823;DHT22;9540;51.550;7.980;2023-02-26T09:14:27;5.50;99.90
18823;DHT22;9540;51.550;7.980;2023-02-26T09:16:54;5.60;99.90
18823;DHT22;9540;51.550;7.980;2023-02-26T09:19:21;5.80;99.90
18823;DHT22;9540;51.550;7.980;2023-02-26T09:21:48;5.60;99.90
18823;DHT22;9540;51.550;7.980;2023-02-26T09:24:14;5.50;99.90
18823;DHT22;9540;51.550;7.980;2023-02-26T09:26:41;5.40;99.90
18823;DHT22;9540;51.550;7.980;2023-02-26T09:29:08;5.60;99.90
18823;DHT22;9540;51.550;7.980;2023-02-26T09:31:37;5.60;99.90
18823;DHT22;9540;51.550;7.980;2023-02-26T09:34:04;5.80;99.90
18823;DHT22;9540;51.550;7.980;2023-02-26T09:36:32;6.30;99.90
18823;DHT22;9540;51.550;7.980;2023-02-26T09:38:59;6.90;99.90
18823;DHT22;9540;51.550;7.980;2023-02-26T09:41:29;7.80;99.90
18823;DHT22;9540;51.550;7.980;2023-02-26T09:44:06;8.40;95.90
18823;DHT22;9540;51.550;7.980;2023-02-26T09:46:44;8.90;94.20
18823;DHT22;9540;51.550;7.980;2023-02-26T09:49:19;8.60;92.00
18823;DHT22;9540;51.550;7.980;2023-02-26T09:51:50;8.30;93.00
18823;DHT22;9540;51.550;7.980;2023-02-26T09:54:21;8.10;92.50
18823;DHT22;9540;51.550;7.980;2023-02-26T09:56:50;7.90;99.90
18823;DHT22;9540;51.550;7.980;2023-02-26T09:59:17;8.00;90.70
18823;DHT22;9540;51.550;7.980;2023-02-26T10:01:53;7.70;94.60
18823;DHT22;9540;51.550;7.980;2023-02-26T10:04:31;7.20;98.80
18823;DHT22;9540;51.550;7.980;2023-02-26T10:07:10;6.40;99.90
18823;DHT22;9540;51.550;7.980;2023-02-26T10:09:52;5.60;99.90
18823;DHT22;9540;51.550;7.980;2023-02-26T10:12:24;5.40;99.90
18823;DHT22;9540;51.550;7.980;2023-02-26T10:14:55;5.70;99.90
18823;DHT22;9540;51.550;7.980;2023-02-26T10:17:29;5.50;99.90
18823;DHT22;9540;51.550;7.980;2023-02-26T10:20:00;5.60;99.90
18823;DHT22;9540;51.550;7.980;2023-02-26T10:22:32;5.80;99.90
18823;DHT22;9540;51.550;7.980;2023-02-26T10:25:05;5.80;99.90
18823;DHT22;9540;51.550;7.980;2023-02-26T10:27:42;6.00;99.90
18823;DHT22;9540;51.550;7.980;2023-02-26T10:30:18;5.30;99.90
18823;DHT22;9540;51.550;7.980;2023-02-26T10:32:56;4.80;99.90
18823;DHT22;9540;51.550;7.980;2023-02-26T10:35:28;5.00;99.90
18823;DHT22;9540;51.550;7.980;2023-02-26T10:37:59;4.70;99.90
18823;DHT22;9540;51.550;7.980;2023-02-26T10:40:30;4.50;99.90
18823;DHT22;9540;51.550;7.980;2023-02-26T10:43:02;4.80;99.90
18823;DHT22;9540;51.550;7.980;2023-02-26T10:45:39;5.70;99.90
18823;DHT22;9540;51.550;7.980;2023-02-26T10:48:18;6.10;99.90
18823;DHT22;9540;51.550;7.980;2023-02-26T10:50:50;5.70;99.90
18823;DHT22;9540;51.550;7.980;2023-02-26T10:53:19;5.40;99.90
18823;DHT22;9540;51.550;7.980;2023-02-26T10:55:48;4.90;99.90
18823;DHT22;9540;51.550;7.980;2023-02-26T10:58:19;4.70;99.90
18823;DHT22;9540;51.550;7.980;2023-02-26T11:00:50;5.00;99.90
18823;DHT22;9540;51.550;7.980;2023-02-26T11:03:22;4.70;99.90
18823;DHT22;9540;51.550;7.980;2023-02-26T11:05:51;4.50;99.90
18823;DHT22;9540;51.550;7.980;2023-02-26T11:08:23;4.50;99.90
18823;DHT22;9540;51.550;7.980;2023-02-26T11:10:53;4.50;99.90
18823;DHT22;9540;51.550;7.980;2023-02-26T11:13:21;4.60;99.90
18823;DHT22;9540;51.550;7.980;2023-02-26T11:15:50;4.50;99.90
18823;DHT22;9540;51.550;7.980;2023-02-26T11:18:22;4.30;99.90
18823;DHT22;9540;51.550;7.980;2023-02-26T11:20:53;4.30;99.90
18823;DHT22;9540;51.550;7.980;2023-02-26T11:23:21;4.40;99.90
18823;DHT22;9540;51.550;7.980;2023-02-26T11:25:53;4.50;99.90
18823;DHT22;9540;51.550;7.980;2023-02-26T11:28:24;4.50;99.90
18823;DHT22;9540;51.550;7.980;2023-02-26T11:30:51;4.40;99.90
18823;DHT22;9540;51.550;7.980;2023-02-26T11:33:23;4.40;99.90
18823;DHT22;9540;51.550;7.980;2023-02-26T11:35:55;4.50;99.90
18823;DHT22;9540;51.550;7.980;2023-02-26T11:38:26;4.80;99.90
18823;DHT22;9540;51.550;7.980;2023-02-26T11:40:55;4.70;99.90
18823;DHT22;9540;51.550;7.980;2023-02-26T11:43:24;4.60;99.90
18823;DHT22;9540;51.550;7.980;2023-02-26T11:45:54;4.50;98.60
18823;DHT22;9540;51.550;7.980;2023-02-26T11:48:28;4.50;99.90
18823;DHT22;9540;51.550;7.980;2023-02-26T11:51:00;5.10;98.70
18823;DHT22;9540;51.550;7.980;2023-02-26T11:53:31;5.20;96.80
18823;DHT22;9540;51.550;7.980;2023-02-26T11:56:01;5.40;91.10
18823;DHT22;9540;51.550;7.980;2023-02-26T11:58:35;5.00;91.20
18823;DHT22;9540;51.550;7.980;2023-02-26T12:01:05;4.60;91.90
18823;DHT22;9540;51.550;7.980;2023-02-26T12:03:36;4.80;99.90
18823;DHT22;9540;51.550;7.980;2023-02-26T12:06:06;4.90;90.20
18823;DHT22;9540;51.550;7.980;2023-02-26T12:08:37;4.80;93.30
18823;DHT22;9540;51.550;7.980;2023-02-26T12:14:15;3.90;97.30
18823;DHT22;9540;51.550;7.980;2023-02-26T12:16:53;4.20;99.90
18823;DHT22;9540;51.550;7.980;2023-02-26T12:19:33;5.10;98.90
18823;DHT22;9540;51.550;7.980;2023-02-26T12:22:18;5.80;87.80
18823;DHT22;9540;51.550;7.980;2023-02-26T12:25:17;6.40;83.70
18823;DHT22;9540;51.550;7.980;2023-02-26T12:28:02;6.50;84.50
18823;DHT22;9540;51.550;7.980;2023-02-26T12:30:44;6.50;85.00
18823;DHT22;9540;51.550;7.980;2023-02-26T12:33:21;6.40;82.40
18823;DHT22;9540;51.550;7.980;2023-02-26T12:38:48;6.50;81.80
18823;DHT22;9540;51.550;7.980;2023-02-26T12:44:21;7.20;76.60
18823;DHT22;9540;51.550;7.980;2023-02-26T12:47:05;7.40;74.80
18823;DHT22;9540;51.550;7.980;2023-02-26T12:49:58;7.20;75.80
18823;DHT22;9540;51.550;7.980;2023-02-26T12:55:37;6.80;75.20
18823;DHT22;9540;51.550;7.980;2023-02-26T12:58:29;6.60;75.40
18823;DHT22;9540;51.550;7.980;2023-02-26T13:01:09;6.90;77.70
18823;DHT22;9540;51.550;7.980;2023-02-26T13:06:50;6.40;75.30
18823;DHT22;9540;51.550;7.980;2023-02-26T13:09:31;6.20;78.00
18823;DHT22;9540;51.550;7.980;2023-02-26T13:12:07;6.10;80.70
18823;DHT22;9540;51.550;7.980;2023-02-26T13:14:48;6.00;80.50
18823;DHT22;9540;51.550;7.980;2023-02-26T13:17:23;5.60;81.30
18823;DHT22;9540;51.550;7.980;2023-02-26T13:19:55;5.40;82.70
18823;DHT22;9540;51.550;7.980;2023-02-26T13:22:25;5.30;86.70
18823;DHT22;9540;51.550;7.980;2023-02-26T13:24:59;5.30;85.50
18823;DHT22;9540;51.550;7.980;2023-02-26T13:27:30;5.10;86.70
18823;DHT22;9540;51.550;7.980;2023-02-26T13:30:12;5.30;86.10
18823;DHT22;9540;51.550;7.980;2023-02-26T13:32:43;5.40;88.30
18823;DHT22;9540;51.550;7.980;2023-02-26T13:35:19;5.10;88.20
18823;DHT22;9540;51.550;7.980;2023-02-26T13:37:49;5.00;88.70
18823;DHT22;9540;51.550;7.980;2023-02-26T13:40:45;5.10;90.50
18823;DHT22;9540;51.550;7.980;2023-02-26T13:43:29;5.20;92.50
18823;DHT22;9540;51.550;7.980;2023-02-26T13:46:09;5.50;91.70
18823;DHT22;9540;51.550;7.980;2023-02-26T13:48:43;5.50;90.20
18823;DHT22;9540;51.550;7.980;2023-02-26T13:51:14;5.10;92.50
18823;DHT22;9540;51.550;7.980;2023-02-26T13:53:54;4.70;95.00
18823;DHT22;9540;51.550;7.980;2023-02-26T13:56:48;4.40;99.90
18823;DHT22;9540;51.550;7.980;2023-02-26T13:59:36;4.20;99.90
18823;DHT22;9540;51.550;7.980;2023-02-26T14:02:30;4.20;99.90
18823;DHT22;9540;51.550;7.980;2023-02-26T14:05:00;4.50;99.90
18823;DHT22;9540;51.550;7.980;2023-02-26T14:07:46;4.80;99.90
18823;DHT22;9540;51.550;7.980;2023-02-26T14:10:17;5.30;92.80
18823;DHT22;9540;51.550;7.980;2023-02-26T14:13:02;5.60;93.30
18823;DHT22;9540;51.550;7.980;2023-02-26T14:15:48;5.50;85.70
18823;DHT22;9540;51.550;7.980;2023-02-26T14:18:34;4.80;86.60
18823;DHT22;9540;51.550;7.980;2023-02-26T14:21:27;4.10;96.00
18823;DHT22;9540;51.550;7.980;2023-02-26T14:24:01;3.70;99.90
18823;DHT22;9540;51.550;7.980;2023-02-26T14:26:32;4.00;99.90
18823;DHT22;9540;51.550;7.980;2023-02-26T14:29:13;4.70;97.90
18823;DHT22;9540;51.550;7.980;2023-02-26T14:32:04;5.30;94.40
18823;DHT22;9540;51.550;7.980;2023-02-26T14:34:34;5.10;94.50
18823;DHT22;9540;51.550;7.980;2023-02-26T14:37:05;4.60;96.40
18823;DHT22;9540;51.550;7.980;2023-02-26T14:39:36;4.20;99.90
18823;DHT22;9540;51.550;7.980;2023-02-26T14:42:07;3.90;99.90
18823;DHT22;9540;51.550;7.980;2023-02-26T14:44:41;3.60;99.90
18823;DHT22;9540;51.550;7.980;2023-02-26T14:47:09;3.70;99.90
18823;DHT22;9540;51.550;7.980;2023-02-26T14:49:39;4.00;99.90
18823;DHT22;9540;51.550;7.980;2023-02-26T14:52:38;4.20;99.90
18823;DHT22;9540;51.550;7.980;2023-02-26T14:55:30;4.30;99.90
18823;DHT22;9540;51.550;7.980;2023-02-26T14:58:09;4.40;99.90
18823;DHT22;9540;51.550;7.980;2023-02-26T15:00:45;4.40;99.90
18823;DHT22;9540;51.550;7.980;2023-02-26T15:06:21;4.10;99.90
18823;DHT22;9540;51.550;7.980;2023-02-26T15:09:00;4.10;99.90
18823;DHT22;9540;51.550;7.980;2023-02-26T15:11:42;4.10;99.90
18823;DHT22;9540;51.550;7.980;2023-02-26T15:17:30;4.00;99.90
18823;DHT22;9540;51.550;7.980;2023-02-26T15:20:09;4.00;99.90
18823;DHT22;9540;51.550;7.980;2023-02-26T15:22:52;4.00;99.90
18823;DHT22;9540;51.550;7.980;2023-02-26T15:25:27;4.00;99.90
18823;DHT22;9540;51.550;7.980;2023-02-26T15:27:55;4.10;99.90
18823;DHT22;9540;51.550;7.980;2023-02-26T15:30:23;4.00;99.90
18823;DHT22;9540;51.550;7.980;2023-02-26T15:32:57;3.90;99.90
18823;DHT22;9540;51.550;7.980;2023-02-26T15:35:27;3.90;99.90
18823;DHT22;9540;51.550;7.980;2023-02-26T15:37:57;3.90;99.90
18823;DHT22;9540;51.550;7.980;2023-02-26T15:40:28;3.70;99.90
18823;DHT22;9540;51.550;7.980;2023-02-26T15:42:57;3.70;99.90
18823;DHT22;9540;51.550;7.980;2023-02-26T15:45:27;3.50;99.90
18823;DHT22;9540;51.550;7.980;2023-02-26T15:48:02;3.50;99.90
18823;DHT22;9540;51.550;7.980;2023-02-26T15:50:32;3.40;99.90
18823;DHT22;9540;51.550;7.980;2023-02-26T15:53:02;3.40;99.90
18823;DHT22;9540;51.550;7.980;2023-02-26T15:55:33;3.40;99.90
18823;DHT22;9540;51.550;7.980;2023-02-26T15:58:01;3.30;99.90
18823;DHT22;9540;51.550;7.980;2023-02-26T16:00:31;3.20;99.90
18823;DHT22;9540;51.550;7.980;2023-02-26T16:03:00;3.10;99.90
18823;DHT22;9540;51.550;7.980;2023-02-26T16:05:29;3.10;99.90
18823;DHT22;9540;51.550;7.980;2023-02-26T16:07:56;3.00;99.90
18823;DHT22;9540;51.550;7.980;2023-02-26T16:10:30;2.90;99.90
18823;DHT22;9540;51.550;7.980;2023-02-26T16:12:58;2.80;99.90
18823;DHT22;9540;51.550;7.980;2023-02-26T16:15:30;2.70;99.90
18823;DHT22;9540;51.550;7.980;2023-02-26T16:18:02;2.60;99.90
18823;DHT22;9540;51.550;7.980;2023-02-26T16:20:36;2.50;99.90
18823;DHT22;9540;51.550;7.980;2023-02-26T16:23:06;2.50;99.90
18823;DHT22;9540;51.550;7.980;2023-02-26T16:25:36;2.40;99.90
18823;DHT22;9540;51.550;7.980;2023-02-26T16:28:06;2.40;99.90
18823;DHT22;9540;51.550;7.980;2023-02-26T16:30:38;2.30;99.90
18823;DHT22;9540;51.550;7.980;2023-02-26T16:33:13;2.30;99.90
18823;DHT22;9540;51.550;7.980;2023-02-26T16:35:43;2.30;99.90
18823;DHT22;9540;51.550;7.980;2023-02-26T16:38:17;2.20;99.90
18823;DHT22;9540;51.550;7.980;2023-02-26T16:40:46;2.20;99.90
18823;DHT22;9540;51.550;7.980;2023-02-26T16:43:33;2.10;99.90